Time;durP1;ratioP1;P1;durP2;ratioP2;P2;SDS_P1;SDS_P2;PMS_P1;PMS_P2;Temp;Humidity;BMP_temperature;BMP_pressure;BME280_temperature;BME280_humidity;BME280_pressure;Samples;Min_cycle;Max_cycle;Signal;HPM_P1;HPM_P2
2022/01/04 00:00:29;;;;;;;1.67;0.50;;;7.60;99.90;;;;;;5078864;28;20101;-91
2022/01/04 00:02:55;;;;;;;2.83;0.35;;;7.60;99.90;;;;;;5081900;28;20059;-90
2022/01/04 00:05:23;;;;;;;0.73;0.68;;;7.60;99.90;;;;;;5098337;28;20058;-91
2022/01/04 00:07:50;;;;;;;0.65;0.57;;;7.60;99.90;;;;;;5100025;28;20030;-90
2022/01/04 00:10:22;;;;;;;3.03;0.40;;;7.50;99.90;;;;;;5079371;28;20044;-91
2022/01/04 00:15:37;;;;;;;1.23;0.40;;;7.50;99.90;;;;;;5095849;28;20101;-91
2022/01/04 00:18:04;;;;;;;1.75;0.30;;;7.50;99.90;;;;;;5078599;28;20068;-91
2022/01/04 00:20:31;;;;;;;2.28;0.40;;;7.60;99.90;;;;;;5061623;28;20552;-91
2022/01/04 00:22:57;;;;;;;1.95;0.38;;;7.60;99.90;;;;;;5078117;28;20040;-91
2022/01/04 00:25:24;;;;;;;0.20;0.20;;;7.50;99.90;;;;;;5078206;28;20079;-90
2022/01/04 00:27:51;;;;;;;1.75;0.68;;;7.50;99.90;;;;;;5079156;28;20135;-90
2022/01/04 00:30:18;;;;;;;1.23;0.40;;;7.60;99.90;;;;;;5078387;28;20081;-90
2022/01/04 00:32:45;;;;;;;0.70;0.30;;;7.50;99.90;;;;;;5078119;28;20135;-90
2022/01/04 00:35:12;;;;;;;1.45;0.50;;;7.50;99.90;;;;;;5078501;28;20139;-91
2022/01/04 00:37:39;;;;;;;0.63;0.63;;;7.60;99.90;;;;;;5089594;28;20056;-91
2022/01/04 00:40:07;;;;;;;0.70;0.32;;;7.50;99.90;;;;;;5101552;28;20272;-90
2022/01/04 00:42:34;;;;;;;1.02;0.28;;;7.50;99.90;;;;;;5078556;28;20076;-90
2022/01/04 00:45:01;;;;;;;7.03;1.52;;;7.50;99.90;;;;;;5078330;28;20147;-91
2022/01/04 00:47:41;;;;;;;1.23;0.40;;;7.50;99.90;;;;;;5078045;28;20044;-91
2022/01/04 00:50:08;;;;;;;2.38;0.60;;;7.50;99.90;;;;;;5077339;28;20078;-91
2022/01/04 00:52:35;;;;;;;0.85;0.57;;;7.50;99.90;;;;;;5077960;28;20055;-90
2022/01/04 00:55:03;;;;;;;1.95;0.55;;;7.40;99.90;;;;;;5077243;28;20075;-91
2022/01/04 00:57:30;;;;;;;1.15;0.57;;;7.40;99.90;;;;;;5078391;28;20076;-91
2022/01/04 00:59:57;;;;;;;1.08;0.75;;;7.40;99.90;;;;;;5078590;28;20507;-90
2022/01/04 01:02:24;;;;;;;0.93;0.60;;;7.40;99.90;;;;;;5077208;28;20568;-91
2022/01/04 01:04:51;;;;;;;0.70;0.70;;;7.40;99.90;;;;;;5078740;28;20523;-91
2022/01/04 01:07:18;;;;;;;0.70;0.50;;;7.30;99.90;;;;;;5079171;28;20059;-90
2022/01/04 01:12:35;;;;;;;2.67;0.68;;;7.30;99.90;;;;;;5066352;28;20072;-91
2022/01/04 01:15:03;;;;;;;6.18;0.98;;;7.20;99.90;;;;;;5078374;28;20079;-91
2022/01/04 01:17:31;;;;;;;0.60;0.52;;;7.20;99.90;;;;;;5077874;28;20048;-91
2022/01/04 01:19:58;;;;;;;1.95;0.60;;;7.20;99.90;;;;;;5077833;28;20534;-90
2022/01/04 01:22:25;;;;;;;0.65;0.63;;;7.30;99.90;;;;;;5086748;28;20115;-90
2022/01/04 01:24:52;;;;;;;4.70;0.80;;;7.30;99.90;;;;;;5078820;28;20128;-90
2022/01/04 01:27:19;;;;;;;1.65;0.82;;;7.30;99.90;;;;;;5079297;28;20067;-90
2022/01/04 01:29:46;;;;;;;2.38;0.80;;;7.30;99.90;;;;;;5077626;28;20071;-91
2022/01/04 01:32:13;;;;;;;1.27;0.80;;;7.30;99.90;;;;;;5078384;28;20146;-90
2022/01/04 01:34:42;;;;;;;1.25;0.90;;;7.20;99.90;;;;;;5078269;28;20051;-90
2022/01/04 01:37:10;;;;;;;3.40;0.80;;;7.20;99.90;;;;;;5077838;28;20093;-91
2022/01/04 01:39:37;;;;;;;0.93;0.80;;;7.20;99.90;;;;;;5077873;28;20140;-90
2022/01/04 01:42:05;;;;;;;2.28;1.13;;;7.30;99.90;;;;;;5077929;28;20385;-91
2022/01/04 01:44:35;;;;;;;1.15;0.73;;;7.30;99.90;;;;;;5077430;28;20131;-90
2022/01/04 01:47:02;;;;;;;0.80;0.63;;;7.30;99.90;;;;;;5078418;28;20082;-91
2022/01/04 01:49:29;;;;;;;0.75;0.75;;;7.20;99.90;;;;;;5077644;28;20071;-90
2022/01/04 01:51:58;;;;;;;1.45;0.65;;;7.20;99.90;;;;;;5082366;28;20044;-89
2022/01/04 01:54:25;;;;;;;1.63;0.77;;;7.20;99.90;;;;;;5100197;28;20028;-91
2022/01/04 01:56:52;;;;;;;0.75;0.57;;;7.30;99.90;;;;;;5098220;28;20048;-91
2022/01/04 01:59:20;;;;;;;0.80;0.50;;;7.20;99.90;;;;;;5098521;28;20028;-91
2022/01/04 02:01:46;;;;;;;0.70;0.70;;;7.30;99.90;;;;;;5083501;28;20082;-91
2022/01/04 02:04:13;;;;;;;0.93;0.90;;;7.30;99.90;;;;;;5076748;28;20051;-90
2022/01/04 02:06:40;;;;;;;0.95;0.60;;;7.30;99.90;;;;;;5077493;28;20071;-90
2022/01/04 02:09:07;;;;;;;4.85;0.80;;;7.30;99.90;;;;;;5076602;28;20500;-91
2022/01/04 02:11:36;;;;;;;1.10;0.60;;;7.30;99.90;;;;;;5076641;28;20044;-91
2022/01/04 02:14:03;;;;;;;3.47;0.98;;;7.30;99.90;;;;;;5077851;28;20086;-91
2022/01/04 02:16:31;;;;;;;2.15;0.93;;;7.30;99.90;;;;;;5077844;28;20087;-90
2022/01/04 02:19:06;;;;;;;1.25;0.60;;;7.20;99.90;;;;;;5077651;28;20496;-91
2022/01/04 02:21:35;;;;;;;2.22;1.00;;;7.20;99.90;;;;;;5076662;28;20083;-90
2022/01/04 02:24:03;;;;;;;2.75;0.70;;;7.20;99.90;;;;;;5079895;28;20516;-90
2022/01/04 02:26:31;;;;;;;2.20;0.80;;;7.20;99.90;;;;;;5080324;28;20558;-90
2022/01/04 02:29:00;;;;;;;2.00;0.73;;;7.30;99.90;;;;;;5080840;28;20067;-90
2022/01/04 02:31:27;;;;;;;1.10;0.70;;;7.20;99.90;;;;;;5082364;28;20054;-90
2022/01/04 02:33:54;;;;;;;1.50;0.77;;;7.30;99.90;;;;;;5080243;28;20055;-90
2022/01/04 02:36:21;;;;;;;1.02;0.73;;;7.30;99.90;;;;;;5080753;28;20067;-90
2022/01/04 02:38:48;;;;;;;1.70;0.90;;;7.30;99.90;;;;;;5080560;28;20072;-89
2022/01/04 02:41:15;;;;;;;1.08;0.70;;;7.20;99.90;;;;;;5081177;28;20067;-89
2022/01/04 02:43:42;;;;;;;1.17;0.70;;;7.20;99.90;;;;;;5080168;28;20131;-89
2022/01/04 02:46:09;;;;;;;2.33;0.70;;;7.10;99.90;;;;;;5080262;28;20134;-89
2022/01/04 02:48:44;;;;;;;1.75;0.60;;;7.20;99.90;;;;;;5080243;28;20055;-89
2022/01/04 02:51:11;;;;;;;2.13;1.10;;;7.30;99.90;;;;;;5079805;28;20135;-89
2022/01/04 02:53:39;;;;;;;1.73;0.75;;;7.30;99.90;;;;;;5080968;28;20162;-89
2022/01/04 02:56:06;;;;;;;1.02;0.70;;;7.30;99.90;;;;;;5079701;28;20408;-89
2022/01/04 02:58:33;;;;;;;2.53;0.82;;;7.30;99.90;;;;;;5080555;28;20441;-89
2022/01/04 03:01:00;;;;;;;2.35;0.73;;;7.30;99.90;;;;;;5081170;28;20484;-89
2022/01/04 03:03:27;;;;;;;1.38;0.68;;;7.30;99.90;;;;;;5079929;28;20078;-89
2022/01/04 03:05:54;;;;;;;0.75;0.73;;;7.30;99.90;;;;;;5080453;28;20074;-89
2022/01/04 03:08:22;;;;;;;1.55;0.80;;;7.40;99.90;;;;;;5098343;28;20056;-88
2022/01/04 03:10:49;;;;;;;2.05;0.70;;;7.30;99.90;;;;;;5094269;28;20230;-89
2022/01/04 03:13:16;;;;;;;1.00;0.75;;;7.30;99.90;;;;;;5080272;28;20080;-88
2022/01/04 03:15:44;;;;;;;3.08;1.23;;;7.30;99.90;;;;;;5079558;28;20083;-88
2022/01/04 03:18:11;;;;;;;0.75;0.75;;;7.30;99.90;;;;;;5080321;28;20535;-88
2022/01/04 03:20:39;;;;;;;1.85;1.13;;;7.20;99.90;;;;;;5081117;28;20087;-89
2022/01/04 03:23:09;;;;;;;0.63;0.63;;;7.20;99.90;;;;;;5079607;28;20048;-89
2022/01/04 03:25:36;;;;;;;1.85;0.80;;;7.20;99.90;;;;;;5079084;28;20063;-89
2022/01/04 03:28:04;;;;;;;2.38;0.65;;;7.20;99.90;;;;;;5078865;28;20075;-88
2022/01/04 03:30:30;;;;;;;3.05;0.90;;;7.20;99.90;;;;;;5078391;28;20070;-89
2022/01/04 03:32:57;;;;;;;4.20;1.08;;;7.10;99.90;;;;;;5079158;28;20130;-88
2022/01/04 03:35:24;;;;;;;2.20;1.10;;;7.20;99.90;;;;;;5078310;28;20143;-89
2022/01/04 03:37:51;;;;;;;1.70;1.08;;;7.20;99.90;;;;;;5078766;28;20045;-88
2022/01/04 03:40:17;;;;;;;1.15;0.90;;;7.10;99.90;;;;;;5079204;28;20062;-88
2022/01/04 03:42:45;;;;;;;3.58;1.23;;;7.10;99.90;;;;;;5079032;28;20492;-88
2022/01/04 03:45:11;;;;;;;1.02;1.02;;;7.20;99.90;;;;;;5078910;28;20079;-89
2022/01/04 03:47:38;;;;;;;1.17;1.00;;;7.20;99.90;;;;;;5083282;28;20470;-88
2022/01/04 03:50:06;;;;;;;1.77;1.30;;;7.20;99.90;;;;;;5095771;28;20040;-88
2022/01/04 03:52:35;;;;;;;1.40;1.00;;;7.20;99.90;;;;;;5095959;28;20048;-88
2022/01/04 03:55:06;;;;;;;1.10;1.05;;;7.20;99.90;;;;;;5079393;28;20044;-88
2022/01/04 03:57:35;;;;;;;1.73;0.93;;;7.20;99.90;;;;;;5078760;28;20083;-88
2022/01/04 04:00:05;;;;;;;1.85;1.25;;;7.30;99.90;;;;;;5078475;28;20064;-88
2022/01/04 04:02:32;;;;;;;1.65;1.30;;;7.30;99.90;;;;;;5078608;28;20127;-88
2022/01/04 04:04:59;;;;;;;1.77;1.65;;;7.30;99.90;;;;;;5078723;28;20097;-88
2022/01/04 04:07:31;;;;;;;2.08;1.25;;;7.30;99.90;;;;;;5079316;28;20051;-88
2022/01/04 04:09:57;;;;;;;1.10;1.10;;;7.20;99.90;;;;;;5078341;28;20051;-88
2022/01/04 04:12:24;;;;;;;1.58;1.40;;;7.30;99.90;;;;;;5095563;28;20135;-88
2022/01/04 04:14:51;;;;;;;1.60;1.50;;;7.20;99.90;;;;;;5077864;28;20084;-88
2022/01/04 04:17:18;;;;;;;2.97;1.52;;;7.30;99.90;;;;;;5077448;28;20044;-88
2022/01/04 04:19:45;;;;;;;1.77;1.38;;;7.20;99.90;;;;;;5078349;28;20131;-89
2022/01/04 04:22:12;;;;;;;1.73;1.63;;;7.20;99.90;;;;;;5088425;28;20104;-88
2022/01/04 04:24:39;;;;;;;2.15;1.98;;;7.20;99.90;;;;;;5118297;28;20051;-88
2022/01/04 04:27:05;;;;;;;2.78;1.70;;;7.20;99.90;;;;;;5078022;28;20047;-88
2022/01/04 04:29:33;;;;;;;2.15;1.98;;;7.20;99.90;;;;;;5077601;28;20473;-88
2022/01/04 04:32:00;;;;;;;3.58;2.15;;;7.20;99.90;;;;;;5077682;28;20092;-88
2022/01/04 04:34:27;;;;;;;2.47;1.70;;;7.20;99.90;;;;;;5095812;28;20050;-88
2022/01/04 04:36:55;;;;;;;4.03;2.50;;;7.20;99.90;;;;;;5079108;28;20131;-88
2022/01/04 04:39:22;;;;;;;2.25;2.15;;;7.10;99.90;;;;;;5095473;28;20326;-89
2022/01/04 04:41:49;;;;;;;3.03;2.17;;;7.10;99.90;;;;;;5095779;28;20051;-88
2022/01/04 04:44:16;;;;;;;2.50;2.30;;;7.10;99.90;;;;;;5077449;28;20052;-88
2022/01/04 04:46:44;;;;;;;5.68;5.22;;;7.10;99.90;;;;;;5094526;28;20052;-88
2022/01/04 04:49:11;;;;;;;7.32;5.22;;;7.10;99.90;;;;;;5077638;28;20044;-88
2022/01/04 04:51:38;;;;;;;6.53;5.32;;;7.10;99.90;;;;;;5095398;28;20059;-88
2022/01/04 04:54:05;;;;;;;6.88;6.25;;;7.10;99.90;;;;;;5077111;28;20055;-88
2022/01/04 04:56:34;;;;;;;7.10;5.40;;;7.10;99.90;;;;;;5094514;28;20047;-88
2022/01/04 04:59:00;;;;;;;4.88;3.85;;;7.10;99.90;;;;;;5094885;28;20079;-88
2022/01/04 05:01:27;;;;;;;3.72;3.28;;;7.10;99.90;;;;;;5077107;28;20052;-89
2022/01/04 05:03:54;;;;;;;9.85;5.57;;;7.10;99.90;;;;;;5095429;28;20097;-88
2022/01/04 05:06:21;;;;;;;7.53;5.30;;;7.10;99.90;;;;;;5077120;28;20055;-88
2022/01/04 05:08:48;;;;;;;11.27;8.85;;;7.00;99.90;;;;;;5077158;28;20131;-88
2022/01/04 05:11:15;;;;;;;9.32;6.80;;;7.00;99.90;;;;;;5077018;28;20480;-88
2022/01/04 05:13:41;;;;;;;9.00;6.10;;;7.10;99.90;;;;;;5077460;28;20054;-87
2022/01/04 05:16:08;;;;;;;7.38;5.97;;;7.10;99.90;;;;;;5076899;28;20135;-89
2022/01/04 05:18:35;;;;;;;14.38;9.93;;;7.10;99.90;;;;;;5077257;28;20420;-88
2022/01/04 05:21:02;;;;;;;16.58;11.18;;;7.10;99.90;;;;;;5094768;28;20138;-88
2022/01/04 05:23:29;;;;;;;15.13;10.25;;;7.20;99.90;;;;;;5077549;28;20127;-88
2022/01/04 05:25:56;;;;;;;16.40;10.00;;;7.20;99.90;;;;;;5099149;28;20083;-88
2022/01/04 05:28:23;;;;;;;15.95;9.50;;;7.20;99.90;;;;;;5099519;28;20072;-87
2022/01/04 05:30:50;;;;;;;9.35;6.50;;;7.00;99.90;;;;;;5099836;28;20068;-88
2022/01/04 05:33:17;;;;;;;12.15;7.57;;;7.10;99.90;;;;;;5081867;28;20554;-88
2022/01/04 05:35:44;;;;;;;5.88;4.93;;;7.10;99.90;;;;;;5083232;28;20076;-89
2022/01/04 05:38:10;;;;;;;6.93;4.93;;;7.10;99.90;;;;;;5100161;28;20100;-87
2022/01/04 05:40:38;;;;;;;4.40;4.00;;;7.20;99.90;;;;;;5117794;28;20032;-87
2022/01/04 05:43:05;;;;;;;3.67;3.22;;;7.20;99.90;;;;;;5100153;28;20127;-88
2022/01/04 05:45:32;;;;;;;4.57;3.92;;;7.20;99.90;;;;;;5086823;28;20052;-88
2022/01/04 05:47:59;;;;;;;3.80;3.40;;;7.20;99.90;;;;;;5099135;28;20170;-88
2022/01/04 05:50:26;;;;;;;5.85;3.42;;;7.20;99.90;;;;;;5081085;28;20492;-88
2022/01/04 05:52:53;;;;;;;5.07;4.32;;;7.30;99.90;;;;;;5080898;28;20109;-88
2022/01/04 05:55:22;;;;;;;4.05;3.70;;;7.30;99.90;;;;;;5080468;28;20079;-89
2022/01/04 05:57:49;;;;;;;6.57;4.00;;;7.30;99.90;;;;;;5081054;28;20055;-88
2022/01/04 06:00:17;;;;;;;4.20;3.80;;;7.20;99.90;;;;;;5084901;28;20044;-88
2022/01/04 06:02:44;;;;;;;13.27;10.15;;;7.20;99.90;;;;;;5068993;28;20048;-88
2022/01/04 06:05:12;;;;;;;11.07;7.95;;;7.30;99.90;;;;;;5068559;28;20044;-88
2022/01/04 06:07:39;;;;;;;8.27;7.35;;;7.30;99.90;;;;;;5085308;28;20052;-88
2022/01/04 06:10:08;;;;;;;9.93;8.65;;;7.20;99.90;;;;;;5084980;28;20048;-88
2022/01/04 06:15:11;;;;;;;9.13;7.40;;;7.20;99.90;;;;;;5102679;28;20040;-88
2022/01/04 06:17:44;;;;;;;12.95;10.75;;;7.20;99.90;;;;;;5083672;28;20117;-88
2022/01/04 06:20:16;;;;;;;6.90;6.20;;;7.20;99.90;;;;;;5101959;28;20492;-89
2022/01/04 06:22:43;;;;;;;7.47;6.25;;;7.10;99.90;;;;;;5084850;28;20040;-88
2022/01/04 06:25:13;;;;;;;7.60;5.25;;;7.10;99.90;;;;;;5084851;28;20048;-88
2022/01/04 06:27:48;;;;;;;6.53;5.40;;;7.10;99.90;;;;;;5101280;28;20104;-86
2022/01/04 06:30:20;;;;;;;11.13;6.93;;;7.10;99.90;;;;;;5108352;28;20055;-88
2022/01/04 06:32:50;;;;;;;6.53;5.93;;;7.10;99.90;;;;;;5109393;28;20058;-88
2022/01/04 06:35:17;;;;;;;7.30;5.18;;;7.00;99.90;;;;;;5091625;28;20075;-88
2022/01/04 06:37:45;;;;;;;4.78;3.13;;;7.10;99.90;;;;;;5102525;28;20083;-88
2022/01/04 06:40:12;;;;;;;4.72;3.17;;;7.10;99.90;;;;;;5085191;28;20044;-87
2022/01/04 06:42:40;;;;;;;3.88;3.13;;;7.00;99.90;;;;;;5105133;28;20052;-88
2022/01/04 06:45:08;;;;;;;3.75;3.45;;;7.10;99.90;;;;;;5105743;28;20055;-88
2022/01/04 06:47:35;;;;;;;8.18;6.45;;;7.00;99.90;;;;;;5107607;28;20048;-88
2022/01/04 06:50:04;;;;;;;8.38;7.68;;;7.10;99.90;;;;;;5088401;28;20044;-88
2022/01/04 06:52:31;;;;;;;6.03;5.50;;;7.00;99.90;;;;;;5112460;28;20044;-88
2022/01/04 06:54:58;;;;;;;4.22;3.90;;;7.00;99.90;;;;;;5103732;28;20048;-86
2022/01/04 06:57:25;;;;;;;4.43;4.13;;;7.00;99.90;;;;;;5093387;28;20064;-88
2022/01/04 06:59:51;;;;;;;6.03;3.67;;;7.00;99.90;;;;;;5108209;28;20048;-88
2022/01/04 07:02:18;;;;;;;4.13;3.00;;;7.10;99.90;;;;;;5090222;28;20032;-88
2022/01/04 07:04:45;;;;;;;2.53;2.33;;;7.10;99.90;;;;;;5091590;28;20051;-87
2022/01/04 07:07:13;;;;;;;5.97;2.83;;;7.10;99.90;;;;;;5089479;28;20076;-88
2022/01/04 07:09:41;;;;;;;3.85;2.70;;;7.10;99.90;;;;;;5089453;28;20094;-87
2022/01/04 07:12:09;;;;;;;3.58;2.65;;;7.10;99.90;;;;;;5090121;28;20127;-87
2022/01/04 07:14:36;;;;;;;3.83;3.30;;;7.10;99.90;;;;;;5088985;28;20044;-88
2022/01/04 07:17:05;;;;;;;10.73;7.00;;;7.00;99.90;;;;;;5072688;28;20101;-88
2022/01/04 07:19:35;;;;;;;18.52;12.02;;;6.90;99.90;;;;;;5088922;28;20055;-88
2022/01/04 07:22:03;;;;;;;21.67;13.90;;;6.90;99.90;;;;;;5104134;28;20065;-88
2022/01/04 07:24:30;;;;;;;19.65;12.68;;;6.90;99.90;;;;;;5106740;28;20075;-86
2022/01/04 07:26:57;;;;;;;13.27;8.18;;;7.00;99.90;;;;;;5089356;28;20086;-88
2022/01/04 07:29:24;;;;;;;16.23;10.25;;;6.90;99.90;;;;;;5072485;28;20132;-87
2022/01/04 07:31:51;;;;;;;21.40;13.43;;;7.00;99.90;;;;;;5068409;28;20048;-87
2022/01/04 07:34:18;;;;;;;13.05;9.07;;;7.00;99.90;;;;;;5075107;28;20064;-88
2022/01/04 07:36:45;;;;;;;15.13;9.25;;;7.00;99.90;;;;;;5097601;28;20052;-86
2022/01/04 07:39:12;;;;;;;9.15;7.55;;;7.00;99.90;;;;;;5092381;28;20070;-87
2022/01/04 07:41:38;;;;;;;10.38;7.82;;;7.00;99.90;;;;;;5069166;28;20075;-87
2022/01/04 07:44:05;;;;;;;14.90;8.27;;;7.00;99.90;;;;;;5069113;28;20075;-88
2022/01/04 07:46:32;;;;;;;13.73;7.35;;;7.00;99.90;;;;;;5085794;28;20053;-87
2022/01/04 07:48:59;;;;;;;26.80;14.27;;;7.10;99.90;;;;;;5068142;28;20040;-87
2022/01/04 07:51:27;;;;;;;51.92;24.60;;;7.00;99.90;;;;;;5068024;28;20084;-87
2022/01/04 07:53:54;;;;;;;53.67;30.83;;;7.00;99.90;;;;;;5069680;28;20052;-87
2022/01/04 07:56:21;;;;;;;50.38;29.20;;;7.10;99.90;;;;;;5068328;28;20071;-88
2022/01/04 07:58:47;;;;;;;47.53;27.48;;;7.10;99.90;;;;;;5086567;28;20090;-87
2022/01/04 08:01:14;;;;;;;42.85;26.75;;;7.10;99.90;;;;;;5086605;28;20063;-88
2022/01/04 08:03:42;;;;;;;55.92;34.97;;;7.10;99.90;;;;;;5069058;28;20064;-88
2022/01/04 08:06:08;;;;;;;47.75;27.80;;;7.20;99.90;;;;;;5087378;28;20071;-87
2022/01/04 08:08:35;;;;;;;68.45;36.58;;;7.20;99.90;;;;;;5096543;28;20036;-87
2022/01/04 08:11:02;;;;;;;44.47;25.88;;;7.30;99.90;;;;;;5096113;28;20040;-88
2022/01/04 08:13:30;;;;;;;27.77;15.57;;;7.30;99.90;;;;;;5069538;28;20139;-88
2022/01/04 08:15:57;;;;;;;33.03;18.35;;;7.30;99.90;;;;;;5086003;28;20049;-88
2022/01/04 08:18:25;;;;;;;18.75;12.15;;;7.30;99.90;;;;;;5085787;28;20082;-88
2022/01/04 08:20:56;;;;;;;16.35;10.88;;;7.30;99.90;;;;;;5066883;28;20072;-87
2022/01/04 08:23:26;;;;;;;23.30;13.23;;;7.40;99.90;;;;;;5067587;28;20067;-88
2022/01/04 08:25:53;;;;;;;28.33;17.95;;;7.40;99.90;;;;;;5067564;28;20465;-88
2022/01/04 08:28:20;;;;;;;51.92;31.17;;;7.40;99.90;;;;;;5067544;28;20143;-88
2022/01/04 08:30:46;;;;;;;49.65;28.70;;;7.40;99.90;;;;;;5068460;28;20075;-88
2022/01/04 08:33:14;;;;;;;49.65;27.75;;;7.40;99.90;;;;;;5084162;28;20044;-88
2022/01/04 08:35:42;;;;;;;32.70;21.30;;;7.30;99.90;;;;;;5085031;28;20040;-88
2022/01/04 08:38:09;;;;;;;30.02;21.45;;;7.30;99.90;;;;;;5068083;28;20059;-88
2022/01/04 08:40:36;;;;;;;15.60;14.00;;;7.40;99.90;;;;;;5067956;28;20053;-88
2022/01/04 08:43:04;;;;;;;4.57;3.65;;;7.30;99.90;;;;;;5067366;28;20108;-88
2022/01/04 08:45:32;;;;;;;10.45;9.45;;;7.30;99.90;;;;;;5068135;28;20074;-86
2022/01/04 08:47:59;;;;;;;65.53;42.40;;;7.30;99.90;;;;;;5068280;28;20242;-88
2022/01/04 08:50:27;;;;;;;90.35;56.78;;;7.20;99.90;;;;;;5067907;28;20411;-88
2022/01/04 08:52:56;;;;;;;25.13;15.25;;;7.20;99.90;;;;;;5051305;28;20056;-88
2022/01/04 08:55:24;;;;;;;9.52;8.13;;;7.20;99.90;;;;;;5053037;28;20110;-88
2022/01/04 08:57:52;;;;;;;4.00;1.65;;;7.10;99.90;;;;;;5068691;28;20054;-87
2022/01/04 09:00:21;;;;;;;71.75;6.00;;;7.10;99.90;;;;;;5069674;28;20438;-87
2022/01/04 09:02:48;;;;;;;21.83;10.27;;;7.20;99.90;;;;;;5067996;28;20108;-88
2022/01/04 09:05:15;;;;;;;24.40;10.45;;;7.20;99.90;;;;;;5085385;28;20101;-88
2022/01/04 09:07:42;;;;;;;15.93;7.80;;;7.20;99.90;;;;;;5085429;28;20083;-88
2022/01/04 09:10:09;;;;;;;5.32;4.50;;;7.10;99.90;;;;;;5067373;28;20041;-88
2022/01/04 09:15:28;;;;;;;2.63;2.45;;;7.10;99.90;;;;;;5087205;28;20055;-87
2022/01/04 09:20:40;;;;;;;1.45;1.45;;;7.10;99.90;;;;;;5085674;28;20059;-87
2022/01/04 09:23:08;;;;;;;1.90;1.80;;;7.10;99.90;;;;;;5077088;28;20408;-87
2022/01/04 09:25:35;;;;;;;1.88;1.77;;;7.10;99.90;;;;;;5080876;28;20071;-88
2022/01/04 09:28:08;;;;;;;2.30;2.20;;;7.10;99.90;;;;;;5080442;28;20035;-88
2022/01/04 09:30:35;;;;;;;3.90;1.23;;;7.00;99.90;;;;;;5094621;28;20063;-88
2022/01/04 09:33:04;;;;;;;46.72;19.83;;;7.00;99.90;;;;;;5067611;28;20052;-87
2022/01/04 09:35:33;;;;;;;2.08;1.98;;;7.00;99.90;;;;;;5068099;28;20075;-89
2022/01/04 09:38:00;;;;;;;1.00;1.00;;;7.10;99.90;;;;;;5069052;28;20382;-87
2022/01/04 09:40:27;;;;;;;4.50;1.42;;;7.00;99.90;;;;;;5084608;28;20068;-87
2022/01/04 09:42:56;;;;;;;1.10;1.10;;;7.00;99.90;;;;;;5066820;28;20071;-88
2022/01/04 09:45:25;;;;;;;5.35;3.22;;;7.00;99.90;;;;;;5084346;28;20048;-87
2022/01/04 09:47:53;;;;;;;1.02;1.00;;;7.10;99.90;;;;;;5067552;28;20060;-87
2022/01/04 09:50:20;;;;;;;0.80;0.80;;;7.00;99.90;;;;;;5067541;28;20075;-87
2022/01/04 09:52:49;;;;;;;2.72;0.60;;;7.00;99.90;;;;;;5067363;28;20481;-87
2022/01/04 09:55:17;;;;;;;0.85;0.80;;;7.10;99.90;;;;;;5067249;28;20044;-87
2022/01/04 09:57:46;;;;;;;0.80;0.80;;;7.10;99.90;;;;;;5066790;28;20052;-87
2022/01/04 10:00:15;;;;;;;1.95;1.40;;;7.20;99.90;;;;;;5067551;28;20511;-87
2022/01/04 10:02:45;;;;;;;1.83;1.17;;;7.20;99.90;;;;;;5084510;28;20045;-87
2022/01/04 10:05:19;;;;;;;1.25;0.90;;;7.20;99.90;;;;;;5067043;28;20126;-87
2022/01/04 10:07:48;;;;;;;2.80;0.85;;;7.30;99.90;;;;;;5084436;28;20075;-87
2022/01/04 10:10:17;;;;;;;0.80;0.80;;;7.30;99.90;;;;;;5067260;28;20459;-88
2022/01/04 10:13:14;;;;;;;0.40;0.40;;;7.30;99.90;;;;;;5067546;28;20048;-88
2022/01/04 10:15:47;;;;;;;1.73;0.40;;;7.10;99.90;;;;;;5077596;28;20108;-87
2022/01/04 10:18:14;;;;;;;0.40;0.40;;;7.20;99.90;;;;;;5067314;28;20094;-88
2022/01/04 10:20:46;;;;;;;1.20;0.88;;;7.10;99.90;;;;;;5067685;28;20041;-87
2022/01/04 10:23:16;;;;;;;1.17;0.30;;;7.00;99.90;;;;;;5068016;28;20068;-87
2022/01/04 10:25:45;;;;;;;3.97;0.80;;;7.00;99.90;;;;;;5066778;28;20083;-87
2022/01/04 10:28:31;;;;;;;28.38;17.50;;;7.00;99.90;;;;;;5068015;28;20044;-87
2022/01/04 10:31:00;;;;;;;10.98;10.07;;;7.00;99.90;;;;;;5066757;28;20052;-87
2022/01/04 10:33:28;;;;;;;3.60;3.30;;;6.90;99.90;;;;;;5067098;28;20106;-87
2022/01/04 10:35:56;;;;;;;1.10;1.00;;;6.90;99.90;;;;;;5068633;28;20056;-87
2022/01/04 10:38:32;;;;;;;0.75;0.75;;;6.90;99.90;;;;;;5096579;28;20036;-87
2022/01/04 10:41:03;;;;;;;1.70;1.60;;;7.00;99.90;;;;;;5073643;28;20051;-86
2022/01/04 10:43:36;;;;;;;5.85;3.80;;;7.10;99.90;;;;;;5066691;28;20512;-88
2022/01/04 10:46:03;;;;;;;12.20;10.95;;;7.10;99.90;;;;;;5070938;28;20458;-87
2022/01/04 10:48:32;;;;;;;29.00;25.90;;;7.20;99.90;;;;;;5070346;28;20056;-85
2022/01/04 10:51:11;;;;;;;100.82;82.22;;;7.20;99.90;;;;;;5069038;28;20044;-87
2022/01/04 10:53:53;;;;;;;5.38;4.90;;;7.30;99.90;;;;;;5069347;28;20076;-85
2022/01/04 10:56:36;;;;;;;9.23;8.27;;;7.30;99.90;;;;;;5087072;28;20067;-87
2022/01/04 10:59:06;;;;;;;1.63;1.25;;;7.50;99.90;;;;;;5070090;28;20135;-88
2022/01/04 11:01:45;;;;;;;25.20;22.60;;;7.50;99.90;;;;;;5070037;28;20076;-88
2022/01/04 11:04:17;;;;;;;1.40;1.30;;;7.30;99.90;;;;;;5088869;28;20058;-87
2022/01/04 11:06:45;;;;;;;2.78;2.67;;;7.30;99.90;;;;;;5087944;28;20040;-87
2022/01/04 11:09:13;;;;;;;1.10;1.10;;;7.20;99.90;;;;;;5069175;28;20045;-87
2022/01/04 11:11:41;;;;;;;4.53;4.10;;;7.20;99.90;;;;;;5069479;28;20060;-87
2022/01/04 11:14:10;;;;;;;4.00;3.60;;;7.20;99.90;;;;;;5068906;28;20473;-87
2022/01/04 11:16:37;;;;;;;3.20;2.40;;;7.30;99.90;;;;;;5068620;28;20444;-87
2022/01/04 11:19:04;;;;;;;3.13;2.42;;;7.20;99.90;;;;;;5091959;28;20045;-86
2022/01/04 11:21:35;;;;;;;8.23;6.18;;;7.20;99.90;;;;;;5080096;28;20051;-86
2022/01/04 11:24:05;;;;;;;12.52;9.48;;;7.10;99.90;;;;;;5075465;28;20099;-88
2022/01/04 11:26:33;;;;;;;84.13;60.13;;;7.10;99.90;;;;;;5070057;28;20051;-87
2022/01/04 11:29:00;;;;;;;5.28;4.78;;;7.10;99.90;;;;;;5069178;28;20048;-87
2022/01/04 11:31:44;;;;;;;7.38;6.63;;;6.90;99.90;;;;;;5068290;28;20049;-88
2022/01/04 11:34:17;;;;;;;3.78;3.47;;;6.90;99.90;;;;;;5068175;28;20048;-86
2022/01/04 11:36:49;;;;;;;15.27;10.70;;;6.90;99.90;;;;;;5085608;28;20055;-87
2022/01/04 11:39:42;;;;;;;5.35;4.85;;;6.80;99.90;;;;;;5067320;28;20079;-87
2022/01/04 11:42:13;;;;;;;3.53;1.30;;;6.80;99.90;;;;;;5064150;28;20044;-87
2022/01/04 11:44:48;;;;;;;1.20;0.90;;;6.90;99.90;;;;;;5085183;28;20049;-87
2022/01/04 11:47:27;;;;;;;2.88;2.67;;;7.00;99.90;;;;;;5085329;28;20119;-87
2022/01/04 11:50:11;;;;;;;0.55;0.55;;;7.00;99.90;;;;;;5067675;28;20100;-87
2022/01/04 11:52:46;;;;;;;2.00;0.98;;;6.90;99.90;;;;;;5095364;28;20039;-87
2022/01/04 11:55:32;;;;;;;1.10;0.93;;;7.00;99.90;;;;;;5077446;28;20052;-87
2022/01/04 11:58:03;;;;;;;3.78;1.15;;;7.10;99.90;;;;;;5067899;28;20075;-87
2022/01/04 12:00:37;;;;;;;14.43;9.40;;;7.10;99.90;;;;;;5068034;28;20070;-87
2022/01/04 12:03:18;;;;;;;12.18;7.72;;;7.10;99.90;;;;;;5067494;28;20063;-87
2022/01/04 12:05:55;;;;;;;2.45;2.25;;;7.00;99.90;;;;;;5067903;28;20086;-87
2022/01/04 12:08:32;;;;;;;5.18;4.78;;;6.90;99.90;;;;;;5084508;28;20048;-87
2022/01/04 12:11:25;;;;;;;4.03;2.60;;;6.80;99.90;;;;;;5053446;28;20050;-87
2022/01/04 12:13:53;;;;;;;4.00;2.63;;;6.70;99.90;;;;;;5084598;28;20044;-87
2022/01/04 12:16:32;;;;;;;6.72;3.30;;;6.70;99.90;;;;;;5067816;28;20068;-87
2022/01/04 12:19:01;;;;;;;2.00;1.48;;;6.70;99.90;;;;;;5067327;28;20054;-87
2022/01/04 12:21:31;;;;;;;3.05;1.00;;;6.90;99.90;;;;;;5067345;28;20126;-87
2022/01/04 12:23:59;;;;;;;1.75;0.57;;;7.00;99.90;;;;;;5065951;28;20048;-86
2022/01/04 12:26:33;;;;;;;2.80;0.60;;;6.80;99.90;;;;;;5066218;28;20056;-87
2022/01/04 12:29:09;;;;;;;1.67;0.82;;;6.80;99.90;;;;;;5065837;28;20083;-86
2022/01/04 12:31:51;;;;;;;2.95;0.55;;;6.80;99.90;;;;;;5084087;28;20094;-87
2022/01/04 12:34:37;;;;;;;2.00;0.68;;;6.70;99.90;;;;;;5062178;28;20071;-87
2022/01/04 12:37:08;;;;;;;0.30;0.30;;;6.60;99.90;;;;;;5066741;28;20084;-87
2022/01/04 12:39:40;;;;;;;1.17;0.40;;;6.50;99.90;;;;;;5066829;28;20076;-87
2022/01/04 12:42:10;;;;;;;0.50;0.10;;;6.50;99.90;;;;;;5068636;28;20052;-87
2022/01/04 12:44:37;;;;;;;0.68;0.20;;;6.40;99.90;;;;;;5066897;28;20509;-87
2022/01/04 12:47:08;;;;;;;0.38;0.38;;;6.40;99.90;;;;;;5067249;28;20479;-87
2022/01/04 12:49:37;;;;;;;1.48;0.30;;;6.30;99.90;;;;;;5066770;28;20166;-87
2022/01/04 12:52:08;;;;;;;2.95;0.38;;;6.30;99.90;;;;;;5067081;28;20055;-87
2022/01/04 12:54:38;;;;;;;1.25;0.20;;;6.30;99.90;;;;;;5067383;28;20108;-86
2022/01/04 12:57:11;;;;;;;0.55;0.30;;;6.10;99.90;;;;;;5066795;28;20072;-87
2022/01/04 12:59:42;;;;;;;0.57;0.20;;;6.20;99.90;;;;;;5066273;28;20182;-86
2022/01/04 13:02:32;;;;;;;5.60;1.05;;;6.10;99.90;;;;;;5067206;28;20044;-87
2022/01/04 13:05:06;;;;;;;0.55;0.30;;;6.10;99.90;;;;;;5061575;28;20083;-87
2022/01/04 13:07:35;;;;;;;0.55;0.20;;;6.10;99.90;;;;;;5074503;28;20139;-88
2022/01/04 13:10:09;;;;;;;0.10;0.10;;;6.10;99.90;;;;;;5074533;28;20108;-87
2022/01/04 13:12:39;;;;;;;0.13;0.13;;;6.10;99.90;;;;;;5093245;28;20040;-85
2022/01/04 13:15:08;;;;;;;0.47;0.20;;;6.10;99.90;;;;;;5090754;28;20076;-87